Kennebunk, Maine
Current Conditions -  °F | °C
As of 4:35 PM on Saturday 25 Oct 2014 (Local Time) from KSFM Reporting Station
Clear Clear  
Wind Chill: 63°   Ceiling: Unl
Heat Index: 63°   Visibility: 10mi
Dew Point: 34°   Wind: 8mph
Humidity: 34%   Direction: 230°SW
Pressure: 29.56"   Gusts: NA
Location:  43.38°N, 70.54°W
Report Text: KSFM 252035Z AUTO 23007KT 10SM CLR 17/01 A2956 RMK AO1
Loading
Personal Weather Stations






























Interactive Weather Map
Tropical Storm Tracking
New forecast layout! Learn more

10-Day Weather Forecast

Advertisements
Track Severe Weather on mobile